Terminal Aerodrome Forecast
Issued by NWS Twin Cities, MN

Home | Current Version | Previous Version | Graphics & Text | Print | Product List | Glossary On
Versions: 1 2 3 4 5 6 7 8 9 10 11 12 13
000
FTUS43 KMPX 252300 RRA
TAFEAU
TAF
KEAU 252339Z 2600/2624 14004KT P6SM SCT015 OVC100
     FM260400 10003KT P6SM OVC015
     FM261000 VRB03KT P6SM OVC009
     FM261800 33005KT P6SM OVC012=

USA.gov is the U.S. government's official web portal to all federal, state and local government web resources and services.